createdAt,value
2019-03-25T00:01:14.261Z,8.45
2019-03-25T00:03:46.446Z,8.47
2019-03-25T00:06:18.182Z,8.64
2019-03-25T00:09:03.201Z,8.73
2019-03-25T00:11:23.108Z,8.60
2019-03-25T00:14:21.540Z,8.63
2019-03-25T00:17:39.987Z,8.68
2019-03-25T00:28:47.160Z,8.55
2019-03-25T00:31:19.197Z,8.59
2019-03-25T00:33:51.703Z,8.59
2019-03-25T00:36:23.434Z,8.47
2019-03-25T00:38:55.625Z,8.47
2019-03-25T00:41:28.154Z,8.37
2019-03-25T00:44:00.925Z,8.29
2019-03-25T00:47:36.627Z,8.29
2019-03-25T00:50:10.141Z,8.16
2019-03-25T00:52:52.291Z,8.22
2019-03-25T00:55:23.807Z,8.24
2019-03-25T00:57:55.543Z,8.24
2019-03-25T01:00:40.558Z,8.32
2019-03-25T01:03:13.542Z,8.33
2019-03-25T01:05:46.774Z,8.37
2019-03-25T01:08:22.927Z,8.34
2019-03-25T01:11:05.614Z,8.46
2019-03-25T01:13:37.237Z,8.55
2019-03-25T01:16:12.115Z,8.48
2019-03-25T01:18:44.241Z,8.45
2019-03-25T01:21:17.110Z,8.52
2019-03-25T01:23:49.794Z,8.58
2019-03-25T01:26:21.912Z,8.73
2019-03-25T01:28:59.978Z,8.81
2019-03-25T01:31:34.297Z,8.78
2019-03-25T01:34:09.007Z,8.82
2019-03-25T01:36:41.023Z,8.80
2019-03-25T01:39:12.836Z,8.79
2019-03-25T01:41:45.109Z,8.96
2019-03-25T01:44:17.878Z,8.89
2019-03-25T01:46:49.462Z,8.88
2019-03-25T01:49:21.025Z,8.94
2019-03-25T01:51:52.606Z,8.87
2019-03-25T01:54:24.190Z,8.91
2019-03-25T01:56:55.778Z,8.90
2019-03-25T01:59:29.232Z,8.95
2019-03-25T02:02:02.166Z,8.92
2019-03-25T02:05:26.594Z,8.67
2019-03-25T02:07:58.303Z,8.47
2019-03-25T02:10:30.380Z,8.36
2019-03-25T02:13:04.404Z,8.05
2019-03-25T02:15:37.104Z,7.82
2019-03-25T02:18:09.667Z,7.78
2019-03-25T02:21:38.857Z,7.73
2019-03-25T02:24:11.508Z,7.79
2019-03-25T02:26:43.158Z,7.74
2019-03-25T02:29:14.862Z,7.85
2019-03-25T02:31:46.419Z,7.86
2019-03-25T02:34:54.032Z,7.84
2019-03-25T02:37:25.659Z,7.91
2019-03-25T02:39:57.253Z,8.02
2019-03-25T02:42:31.664Z,8.02
2019-03-25T02:48:56.424Z,7.78
2019-03-25T02:54:16.777Z,7.69
2019-03-25T02:56:57.874Z,7.64
2019-03-25T02:59:29.533Z,7.56
2019-03-25T03:02:49.068Z,7.50
2019-03-25T03:06:18.796Z,7.37
2019-03-25T03:13:37.227Z,7.30
2019-03-25T03:20:46.572Z,7.16
2019-03-25T03:23:27.716Z,7.23
2019-03-25T03:30:06.297Z,7.14
2019-03-25T03:33:08.593Z,7.13
2019-03-25T03:36:13.606Z,7.14
2019-03-25T03:39:08.372Z,7.12
2019-03-25T03:42:20.457Z,7.10
2019-03-25T03:44:54.370Z,7.26
2019-03-25T03:47:26.565Z,7.33
2019-03-25T03:49:58.173Z,7.39
2019-03-25T03:52:29.965Z,7.19
2019-03-25T03:55:01.999Z,7.25
2019-03-25T03:57:40.498Z,7.11
2019-03-25T04:00:36.281Z,7.13
2019-03-25T04:03:07.781Z,7.12
2019-03-25T04:05:39.389Z,7.08
2019-03-25T04:08:11.038Z,7.03
2019-03-25T04:14:42.347Z,7.13
2019-03-25T04:18:01.677Z,7.13
2019-03-25T04:20:33.677Z,7.10
2019-03-25T04:23:05.320Z,7.18
2019-03-25T04:25:37.523Z,7.09
2019-03-25T04:28:09.983Z,7.16
2019-03-25T04:30:41.587Z,7.22
2019-03-25T04:33:14.177Z,7.13
2019-03-25T04:35:54.131Z,7.07
2019-03-25T04:38:36.385Z,7.07
2019-03-25T04:41:08.866Z,7.08
2019-03-25T04:48:07.098Z,7.17
2019-03-25T04:50:40.151Z,7.20
2019-03-25T04:53:14.948Z,7.12
2019-03-25T04:55:58.502Z,7.13
2019-03-25T04:58:51.763Z,7.04
2019-03-25T05:05:36.397Z,7.09
2019-03-25T05:09:02.768Z,6.99
2019-03-25T05:11:34.459Z,6.93
2019-03-25T05:14:23.579Z,6.91
2019-03-25T05:16:56.271Z,7.07
2019-03-25T05:19:27.834Z,7.10
2019-03-25T05:22:01.727Z,7.31
2019-03-25T05:24:33.315Z,7.56
2019-03-25T05:27:06.622Z,7.69
2019-03-25T05:29:38.205Z,7.62
2019-03-25T05:32:11.530Z,7.73
2019-03-25T05:34:43.180Z,7.72
2019-03-25T05:37:15.161Z,7.76
2019-03-25T05:39:47.314Z,7.96
2019-03-25T05:42:19.956Z,7.90
2019-03-25T05:44:52.022Z,7.92
2019-03-25T05:47:24.769Z,7.91
2019-03-25T05:49:56.350Z,7.92
2019-03-25T05:52:29.299Z,7.89
2019-03-25T05:55:00.970Z,8.02
2019-03-25T05:57:32.610Z,8.01
2019-03-25T06:00:04.429Z,7.92
2019-03-25T06:02:35.958Z,7.92
2019-03-25T06:05:25.929Z,7.92
2019-03-25T06:08:05.282Z,7.96
2019-03-25T06:10:37.914Z,8.03
2019-03-25T06:20:17.298Z,8.13
2019-03-25T06:22:49.390Z,8.09
2019-03-25T06:25:24.029Z,8.15
2019-03-25T06:27:57.213Z,8.16
2019-03-25T06:30:30.967Z,8.08
2019-03-25T06:34:08.767Z,8.12
2019-03-25T06:36:40.370Z,8.19
2019-03-25T06:39:24.230Z,8.31
2019-03-25T06:41:57.069Z,8.39
2019-03-25T06:44:29.603Z,8.48
2019-03-25T06:47:03.799Z,8.51
2019-03-25T06:49:41.681Z,8.47
2019-03-25T06:52:14.237Z,8.76
2019-03-25T06:54:46.613Z,8.77
2019-03-25T07:01:09.562Z,8.64
2019-03-25T07:11:34.452Z,9.34
2019-03-25T07:14:59.486Z,9.86
2019-03-25T07:17:53.816Z,9.60
2019-03-25T07:20:25.366Z,10.86
2019-03-25T07:22:57.542Z,11.77
2019-03-25T07:25:29.471Z,12.11
2019-03-25T07:28:01.108Z,12.48
2019-03-25T07:30:32.723Z,11.70
2019-03-25T07:33:04.411Z,11.16
2019-03-25T07:35:37.447Z,10.80
2019-03-25T07:38:09.075Z,10.82
2019-03-25T07:40:41.262Z,12.31
2019-03-25T07:43:12.861Z,11.61
2019-03-25T07:45:46.094Z,12.34
2019-03-25T07:48:17.654Z,13.10
2019-03-25T07:50:52.239Z,13.33
2019-03-25T07:53:23.813Z,12.52
2019-03-25T07:55:58.594Z,11.79
2019-03-25T07:58:37.984Z,11.45
2019-03-25T08:01:11.093Z,11.34
2019-03-25T08:03:43.647Z,11.84
2019-03-25T08:06:15.456Z,11.66
2019-03-25T08:08:49.268Z,11.38
2019-03-25T08:11:21.097Z,11.09
2019-03-25T08:13:55.229Z,11.20
2019-03-25T08:16:40.809Z,12.15
2019-03-25T08:19:14.328Z,11.81
2019-03-25T08:21:52.301Z,11.52
2019-03-25T08:24:23.883Z,13.47
2019-03-25T08:26:55.408Z,13.99
2019-03-25T08:29:26.934Z,13.29
2019-03-25T08:31:59.063Z,12.89
2019-03-25T08:34:30.727Z,13.36
2019-03-25T08:37:04.380Z,14.43
2019-03-25T08:39:35.736Z,14.07
2019-03-25T08:42:07.372Z,12.75
2019-03-25T08:44:38.853Z,11.87
2019-03-25T08:47:11.617Z,13.12
2019-03-25T08:49:44.711Z,14.23
2019-03-25T08:52:17.404Z,13.64
2019-03-25T08:54:49.038Z,12.93
2019-03-25T08:57:20.568Z,12.65
2019-03-25T08:59:52.555Z,12.19
2019-03-25T09:02:24.125Z,12.65
2019-03-25T09:04:58.824Z,14.24
2019-03-25T09:07:30.408Z,15.52
2019-03-25T09:10:02.480Z,16.84
2019-03-25T09:12:34.181Z,15.68
2019-03-25T09:15:24.892Z,16.22
2019-03-25T09:17:56.745Z,15.18
2019-03-25T09:20:30.395Z,15.33
2019-03-25T09:23:02.264Z,16.18
2019-03-25T09:25:34.743Z,16.21
2019-03-25T09:28:06.698Z,17.66
2019-03-25T09:31:21.849Z,18.73
2019-03-25T09:33:59.935Z,20.37
2019-03-25T09:36:31.785Z,20.48
2019-03-25T09:39:06.590Z,19.28
2019-03-25T09:41:38.111Z,19.80
2019-03-25T09:44:09.649Z,20.09
2019-03-25T09:46:41.236Z,19.32
2019-03-25T09:49:12.778Z,20.05
2019-03-25T09:51:44.459Z,19.88
2019-03-25T09:54:15.887Z,20.55
2019-03-25T09:56:47.503Z,20.68
2019-03-25T09:59:18.998Z,22.20
2019-03-25T10:01:50.509Z,22.68
2019-03-25T10:04:22.084Z,20.74
2019-03-25T10:06:53.703Z,20.92
2019-03-25T10:09:26.311Z,21.81
2019-03-25T10:12:00.743Z,20.69
2019-03-25T10:14:32.281Z,18.58
2019-03-25T10:17:03.673Z,17.23
2019-03-25T10:19:35.140Z,18.18
2019-03-25T10:22:06.578Z,21.05
2019-03-25T10:24:38.023Z,23.84
2019-03-25T10:27:12.691Z,22.08
2019-03-25T10:29:45.414Z,22.98
2019-03-25T10:32:17.213Z,20.11
2019-03-25T10:34:51.801Z,18.67
2019-03-25T10:37:23.404Z,19.31
2019-03-25T10:39:55.300Z,22.94
2019-03-25T10:42:26.864Z,22.02
2019-03-25T10:44:59.861Z,23.64
2019-03-25T10:47:31.516Z,22.95
2019-03-25T10:50:05.169Z,18.46
2019-03-25T10:52:36.714Z,17.64
2019-03-25T10:55:08.600Z,18.14
2019-03-25T10:57:40.104Z,21.51
2019-03-25T11:00:14.226Z,22.29
2019-03-25T11:02:45.960Z,23.05
2019-03-25T11:05:17.893Z,22.38
2019-03-25T11:07:49.761Z,21.67
2019-03-25T11:10:27.712Z,20.02
2019-03-25T11:12:59.597Z,19.94
2019-03-25T11:15:31.193Z,19.02
2019-03-25T11:18:02.648Z,17.58
2019-03-25T11:20:34.236Z,16.36
2019-03-25T11:23:05.849Z,16.19
2019-03-25T11:25:37.472Z,20.04
2019-03-25T11:28:12.320Z,22.19
2019-03-25T11:31:08.738Z,23.73
2019-03-25T11:33:40.279Z,25.94
2019-03-25T11:36:12.016Z,24.26
2019-03-25T11:38:43.521Z,25.21
2019-03-25T11:41:15.171Z,25.06
2019-03-25T11:43:46.861Z,23.66
2019-03-25T11:46:18.759Z,23.49
2019-03-25T11:48:50.397Z,24.21
2019-03-25T11:51:21.953Z,23.67
2019-03-25T11:53:54.485Z,22.64
2019-03-25T11:56:26.198Z,23.10
2019-03-25T11:58:57.712Z,25.82
2019-03-25T12:01:30.038Z,27.26
2019-03-25T12:04:01.702Z,25.73
2019-03-25T12:06:33.380Z,24.82
2019-03-25T12:09:08.001Z,25.76
2019-03-25T12:11:39.584Z,26.49
2019-03-25T12:14:11.209Z,27.06
2019-03-25T12:16:43.130Z,26.51
2019-03-25T12:19:15.250Z,27.49
2019-03-25T12:21:46.854Z,26.86
2019-03-25T12:24:18.671Z,27.64
2019-03-25T12:26:50.354Z,27.84
2019-03-25T12:29:30.010Z,25.28
2019-03-25T12:31:55.771Z,26.77
2019-03-25T12:34:27.930Z,28.16
2019-03-25T12:36:59.701Z,26.92
2019-03-25T12:39:32.831Z,26.43
2019-03-25T12:42:31.171Z,27.02
2019-03-25T12:45:10.774Z,26.92
2019-03-25T12:47:42.548Z,26.54
2019-03-25T12:50:15.883Z,26.63
2019-03-25T12:52:50.341Z,23.91
2019-03-25T12:55:23.460Z,24.21
2019-03-25T12:57:55.226Z,25.24
2019-03-25T13:00:43.740Z,23.28
2019-03-25T13:03:16.014Z,22.58
2019-03-25T13:05:47.865Z,24.24
2019-03-25T13:08:32.747Z,23.34
2019-03-25T13:10:58.177Z,24.31
2019-03-25T13:13:30.245Z,25.75
2019-03-25T13:16:02.090Z,25.68
2019-03-25T13:18:33.754Z,25.61
2019-03-25T13:21:05.453Z,25.97
2019-03-25T13:23:37.165Z,25.20
2019-03-25T13:26:08.795Z,25.20
2019-03-25T13:28:42.052Z,26.76
2019-03-25T13:31:15.493Z,26.17
2019-03-25T13:33:48.760Z,26.25
2019-03-25T13:36:21.432Z,26.38
2019-03-25T13:38:54.768Z,26.13
2019-03-25T13:41:26.791Z,26.76
2019-03-25T13:43:58.762Z,25.71
2019-03-25T13:46:30.816Z,26.60
2019-03-25T13:49:03.629Z,26.15
2019-03-25T13:51:35.560Z,24.10
2019-03-25T13:54:07.222Z,24.69
2019-03-25T13:56:38.714Z,25.27
2019-03-25T13:59:22.265Z,25.54
2019-03-25T14:01:55.815Z,25.67
2019-03-25T14:04:30.416Z,24.40
2019-03-25T14:07:10.325Z,25.63
2019-03-25T14:10:01.472Z,24.48
2019-03-25T14:12:33.777Z,22.71
2019-03-25T14:15:30.803Z,22.16
2019-03-25T14:18:08.085Z,21.00
2019-03-25T14:20:41.213Z,20.18
2019-03-25T14:23:24.973Z,19.31
2019-03-25T14:26:02.321Z,18.99
2019-03-25T14:28:38.114Z,18.71
2019-03-25T14:34:14.482Z,18.17
2019-03-25T14:37:44.782Z,17.75
2019-03-25T14:40:32.247Z,17.46
2019-03-25T14:43:10.012Z,16.93
2019-03-25T14:45:43.706Z,16.80
2019-03-25T14:48:16.830Z,16.49
2019-03-25T14:50:49.697Z,16.40
2019-03-25T14:53:22.351Z,16.36
2019-03-25T14:55:53.940Z,16.66
2019-03-25T14:58:25.464Z,16.45
2019-03-25T15:00:57.020Z,16.71
2019-03-25T15:03:28.718Z,16.54
2019-03-25T15:06:00.962Z,16.60
2019-03-25T15:08:33.490Z,16.10
2019-03-25T15:11:05.045Z,16.27
2019-03-25T15:13:38.268Z,16.39
2019-03-25T15:16:12.975Z,16.30
2019-03-25T15:18:45.181Z,17.16
2019-03-25T15:21:16.706Z,17.29
2019-03-25T15:23:48.447Z,17.55
2019-03-25T15:26:21.133Z,17.90
2019-03-25T15:28:55.923Z,17.24
2019-03-25T15:31:28.913Z,16.84
2019-03-25T15:34:01.898Z,16.35
2019-03-25T15:36:34.157Z,15.73
2019-03-25T15:39:09.214Z,15.60
2019-03-25T15:41:41.927Z,15.47
2019-03-25T15:49:34.810Z,14.77
2019-03-25T15:52:10.501Z,14.72
2019-03-25T15:54:50.844Z,14.99
2019-03-25T15:57:35.580Z,14.80
2019-03-25T16:06:19.208Z,14.92
2019-03-25T16:10:13.653Z,14.51
2019-03-25T16:12:58.652Z,14.36
2019-03-25T16:15:37.643Z,13.98
2019-03-25T16:21:05.961Z,14.15
2019-03-25T16:23:50.272Z,13.98
2019-03-25T16:26:31.567Z,13.73
2019-03-25T16:29:03.756Z,13.56
2019-03-25T16:31:37.083Z,13.48
2019-03-25T16:34:08.923Z,13.51
2019-03-25T16:40:43.491Z,13.44
2019-03-25T16:43:17.587Z,13.43
2019-03-25T16:45:52.297Z,13.15
2019-03-25T16:48:33.881Z,12.95
2019-03-25T16:51:29.615Z,13.07
2019-03-25T16:54:02.786Z,12.88
2019-03-25T16:56:35.643Z,12.60
2019-03-25T16:59:10.501Z,12.66
2019-03-25T17:01:45.211Z,12.60
2019-03-25T17:04:17.290Z,12.45
2019-03-25T17:06:48.881Z,12.55
2019-03-25T17:09:20.859Z,12.52
2019-03-25T17:11:52.595Z,12.31
2019-03-25T17:14:26.137Z,12.07
2019-03-25T17:17:02.698Z,12.43
2019-03-25T17:19:34.252Z,12.28
2019-03-25T17:22:05.905Z,12.35
2019-03-25T17:24:39.688Z,12.34
2019-03-25T17:27:11.364Z,12.21
2019-03-25T17:29:42.917Z,12.00
2019-03-25T17:32:14.705Z,12.03
2019-03-25T17:34:46.259Z,12.04
2019-03-25T17:37:18.357Z,11.88
2019-03-25T17:42:38.490Z,11.69
2019-03-25T17:45:11.941Z,11.74
2019-03-25T17:47:44.470Z,11.52
2019-03-25T17:50:16.870Z,11.33
2019-03-25T17:52:51.142Z,11.55
2019-03-25T17:55:22.811Z,11.59
2019-03-25T17:57:54.696Z,11.34
2019-03-25T18:01:32.213Z,11.33
2019-03-25T18:03:59.880Z,10.88
2019-03-25T18:06:31.697Z,10.92
2019-03-25T18:09:05.354Z,10.70
2019-03-25T18:11:36.953Z,10.67
2019-03-25T18:14:08.715Z,10.50
2019-03-25T18:16:40.415Z,10.68
2019-03-25T18:22:39.905Z,10.73
2019-03-25T18:25:13.099Z,10.65
2019-03-25T18:27:45.838Z,10.71
2019-03-25T18:30:22.698Z,10.48
2019-03-25T18:32:58.927Z,10.48
2019-03-25T18:35:41.747Z,10.36
2019-03-25T18:38:13.435Z,10.30
2019-03-25T18:40:45.106Z,10.08
2019-03-25T18:43:28.737Z,10.01
2019-03-25T18:46:07.253Z,10.03
2019-03-25T18:48:38.809Z,9.99
2019-03-25T18:51:11.212Z,10.21
2019-03-25T18:54:49.391Z,10.10
2019-03-25T18:57:38.425Z,10.12
2019-03-25T19:00:33.215Z,9.95
2019-03-25T19:03:10.841Z,10.24
2019-03-25T19:05:47.342Z,10.25
2019-03-25T19:08:20.245Z,10.24
2019-03-25T19:11:14.270Z,10.24
2019-03-25T19:13:45.933Z,10.40
2019-03-25T19:16:19.019Z,10.43
2019-03-25T19:18:50.457Z,10.43
2019-03-25T19:21:22.004Z,10.41
2019-03-25T19:23:53.443Z,10.22
2019-03-25T19:26:25.711Z,10.08
2019-03-25T19:28:57.485Z,10.06
2019-03-25T19:31:28.931Z,10.08
2019-03-25T19:34:00.500Z,10.05
2019-03-25T19:36:32.134Z,10.00
2019-03-25T19:39:05.187Z,9.96
2019-03-25T19:41:36.841Z,10.03
2019-03-25T19:44:08.378Z,9.94
2019-03-25T19:46:40.119Z,9.92
2019-03-25T19:49:11.759Z,10.01
2019-03-25T19:51:43.277Z,9.86
2019-03-25T19:54:14.976Z,9.94
2019-03-25T19:56:46.480Z,10.06
2019-03-25T19:59:18.202Z,10.12
2019-03-25T20:01:49.891Z,9.92
2019-03-25T20:04:21.439Z,10.11
2019-03-25T20:06:53.292Z,10.07
2019-03-25T20:09:24.915Z,10.11
2019-03-25T20:11:56.807Z,10.23
2019-03-25T20:14:28.396Z,10.13
2019-03-25T20:16:59.921Z,10.15
2019-03-25T20:19:31.533Z,10.20
2019-03-25T20:22:04.400Z,10.06
2019-03-25T20:24:35.988Z,10.05
2019-03-25T20:27:08.392Z,9.99
2019-03-25T20:29:39.900Z,10.11
2019-03-25T20:32:12.444Z,10.22
2019-03-25T20:34:43.919Z,10.28
2019-03-25T20:37:15.595Z,10.34
2019-03-25T20:39:47.962Z,10.16
2019-03-25T20:42:19.563Z,10.08
2019-03-25T20:44:52.697Z,10.12
2019-03-25T20:47:25.107Z,10.12
2019-03-25T20:49:56.639Z,10.15
2019-03-25T20:52:28.131Z,10.25
2019-03-25T20:55:00.502Z,10.33
2019-03-25T20:57:32.065Z,10.35
2019-03-25T21:00:03.579Z,10.27
2019-03-25T21:02:44.427Z,10.09
2019-03-25T21:05:09.013Z,10.22
2019-03-25T21:07:42.041Z,10.06
2019-03-25T21:10:13.911Z,9.94
2019-03-25T21:12:45.579Z,10.09
2019-03-25T21:15:21.702Z,9.95
2019-03-25T21:17:56.304Z,9.94
2019-03-25T21:20:27.900Z,10.10
2019-03-25T21:22:59.523Z,10.05
2019-03-25T21:25:31.513Z,10.27
2019-03-25T21:28:06.474Z,10.18
2019-03-25T21:30:48.761Z,10.14
2019-03-25T21:33:20.898Z,10.18
2019-03-25T21:35:58.678Z,10.14
2019-03-25T21:38:30.321Z,10.12
2019-03-25T21:41:03.282Z,10.19
2019-03-25T21:43:36.120Z,10.12
2019-03-25T21:46:08.129Z,10.15
2019-03-25T21:48:40.881Z,10.16
2019-03-25T21:51:12.851Z,10.19
2019-03-25T21:53:44.636Z,10.07
2019-03-25T21:56:16.202Z,10.19
2019-03-25T21:58:48.878Z,10.03
2019-03-25T22:01:21.257Z,10.12
2019-03-25T22:03:52.795Z,10.07
2019-03-25T22:06:24.440Z,10.15
2019-03-25T22:08:56.093Z,10.10
2019-03-25T22:11:28.772Z,10.33
2019-03-25T22:14:01.654Z,10.25
2019-03-25T22:16:33.205Z,10.05
2019-03-25T22:19:05.080Z,10.10
2019-03-25T22:21:37.556Z,9.92
2019-03-25T22:24:09.090Z,9.97
2019-03-25T22:26:40.640Z,10.12
2019-03-25T22:29:12.408Z,9.99
2019-03-25T22:31:44.002Z,9.88
2019-03-25T22:34:21.252Z,9.74
2019-03-25T22:36:53.839Z,10.05
2019-03-25T22:39:25.365Z,9.90
2019-03-25T22:42:05.445Z,9.94
2019-03-25T22:44:37.085Z,9.95
2019-03-25T22:47:08.796Z,9.86
2019-03-25T22:49:41.646Z,9.97
2019-03-25T22:52:24.234Z,9.81
2019-03-25T22:54:55.809Z,9.85
2019-03-25T22:57:27.476Z,9.98
2019-03-25T23:00:00.388Z,9.80
2019-03-25T23:02:33.001Z,9.88
2019-03-25T23:05:05.814Z,9.93
2019-03-25T23:07:37.377Z,9.81
2019-03-25T23:10:16.270Z,9.99
2019-03-25T23:12:52.349Z,9.99
2019-03-25T23:15:24.829Z,9.80
2019-03-25T23:17:57.004Z,9.79
2019-03-25T23:20:29.027Z,9.84
2019-03-25T23:23:02.280Z,9.75
2019-03-25T23:25:34.823Z,9.77
2019-03-25T23:28:07.598Z,9.65
2019-03-25T23:30:40.465Z,9.67
2019-03-25T23:33:14.266Z,9.78
2019-03-25T23:35:46.168Z,9.74
2019-03-25T23:38:17.950Z,9.67
2019-03-25T23:40:49.974Z,9.79
2019-03-25T23:43:22.155Z,9.86
2019-03-25T23:45:53.700Z,9.63
2019-03-25T23:48:25.209Z,9.68
2019-03-25T23:51:02.972Z,9.44
2019-03-25T23:53:35.036Z,9.53
2019-03-25T23:56:18.788Z,9.65
2019-03-25T23:58:51.299Z,9.65
